createdAt,value
2023-01-01T00:01:29.610Z,10.60
2023-01-01T00:06:33.043Z,7.10
2023-01-01T00:11:36.605Z,10.50
2023-01-01T00:16:40.281Z,9.30
2023-01-01T00:21:43.572Z,8.60
2023-01-01T00:26:46.694Z,8.10
2023-01-01T00:31:50.444Z,7.90
2023-01-01T00:36:53.686Z,8.50
2023-01-01T00:41:56.833Z,6.00
2023-01-01T00:47:00.121Z,8.30
2023-01-01T00:52:03.328Z,7.00
2023-01-01T00:57:06.450Z,8.80
2023-01-01T01:02:09.728Z,8.70
2023-01-01T01:07:12.915Z,8.70
2023-01-01T01:12:18.176Z,8.40
2023-01-01T01:17:22.421Z,8.80
2023-01-01T01:22:29.121Z,7.30
2023-01-01T01:27:32.900Z,7.40
2023-01-01T01:32:36.246Z,7.20
2023-01-01T01:37:39.489Z,7.10
2023-01-01T01:42:46.274Z,7.40
2023-01-01T01:47:50.015Z,7.80
2023-01-01T01:53:02.452Z,8.10
2023-01-01T01:58:09.637Z,8.90
2023-01-01T02:03:18.997Z,7.90
2023-01-01T02:08:23.363Z,9.50
2023-01-01T02:13:26.663Z,8.80
2023-01-01T02:18:59.523Z,8.30
2023-01-01T02:24:24.069Z,9.90
2023-01-01T02:29:33.295Z,8.40
2023-01-01T02:34:47.029Z,8.40
2023-01-01T02:39:59.360Z,8.20
2023-01-01T02:45:03.255Z,7.90
2023-01-01T02:50:35.435Z,7.50
2023-01-01T02:55:46.270Z,6.70
2023-01-01T03:00:54.387Z,5.40
2023-01-01T03:06:25.052Z,7.30
2023-01-01T03:11:52.592Z,6.90
2023-01-01T03:17:22.436Z,7.90
2023-01-01T03:22:31.789Z,7.50
2023-01-01T03:27:41.476Z,7.60
2023-01-01T03:33:01.663Z,7.40
2023-01-01T03:38:10.915Z,8.90
2023-01-01T03:43:21.144Z,8.00
2023-01-01T03:48:24.340Z,7.30
2023-01-01T03:53:40.307Z,6.30
2023-01-01T03:58:53.003Z,8.20
2023-01-01T04:09:01.863Z,7.30
2023-01-01T04:14:05.061Z,7.60
2023-01-01T04:19:08.428Z,7.60
2023-01-01T04:24:11.683Z,9.80
2023-01-01T04:29:14.940Z,6.50
2023-01-01T04:34:18.382Z,6.30
2023-01-01T04:39:21.549Z,7.90
2023-01-01T04:44:24.645Z,7.80
2023-01-01T04:49:27.908Z,5.70
2023-01-01T04:54:31.526Z,6.30
2023-01-01T04:59:34.647Z,5.50
2023-01-01T05:04:37.774Z,7.10
2023-01-01T05:09:40.936Z,7.70
2023-01-01T05:14:44.040Z,6.30
2023-01-01T05:19:47.233Z,6.10
2023-01-01T05:24:50.409Z,7.10
2023-01-01T05:29:53.579Z,5.50
2023-01-01T05:34:56.683Z,7.00
2023-01-01T05:39:59.824Z,6.20
2023-01-01T05:45:03.992Z,6.40
2023-01-01T05:55:10.438Z,7.40
2023-01-01T06:00:14.289Z,7.00
2023-01-01T06:05:17.940Z,6.90
2023-01-01T06:10:23.003Z,7.30
2023-01-01T06:15:27.300Z,6.50
2023-01-01T06:20:31.173Z,6.70
2023-01-01T06:25:35.138Z,6.70
2023-01-01T06:30:38.832Z,6.60
2023-01-01T06:35:43.055Z,6.20
2023-01-01T06:40:56.238Z,8.00
2023-01-01T06:46:16.420Z,6.30
2023-01-01T06:51:22.151Z,5.30
2023-01-01T06:56:25.861Z,6.50
2023-01-01T07:01:31.871Z,6.70
2023-01-01T07:06:35.647Z,6.90
2023-01-01T07:11:38.862Z,7.80
2023-01-01T07:16:42.349Z,6.90
2023-01-01T07:21:51.554Z,6.50
2023-01-01T07:26:54.620Z,8.40
2023-01-01T07:31:57.771Z,6.90
2023-01-01T07:37:00.854Z,7.00
2023-01-01T07:42:10.709Z,10.30
2023-01-01T07:47:33.162Z,8.80
2023-01-01T07:52:36.263Z,6.70
2023-01-01T07:57:39.496Z,8.50
2023-01-01T08:02:42.750Z,6.50
2023-01-01T08:07:47.952Z,9.60
2023-01-01T08:12:51.184Z,7.70
2023-01-01T08:17:58.999Z,7.70
2023-01-01T08:23:07.094Z,9.10
2023-01-01T08:28:10.661Z,9.30
2023-01-01T08:33:13.868Z,6.60
2023-01-01T08:38:17.318Z,8.30
2023-01-01T08:43:21.466Z,7.30
2023-01-01T08:48:30.766Z,11.00
2023-01-01T08:53:34.303Z,9.10
2023-01-01T08:58:39.587Z,9.00
2023-01-01T09:03:42.805Z,6.00
2023-01-01T09:08:45.947Z,11.30
2023-01-01T09:13:49.147Z,8.80
2023-01-01T09:18:53.489Z,9.60
2023-01-01T09:23:56.583Z,4.90
2023-01-01T09:28:59.770Z,7.50
2023-01-01T09:34:02.882Z,9.20
2023-01-01T09:39:06.737Z,8.90
2023-01-01T09:44:31.177Z,9.60
2023-01-01T09:49:43.605Z,9.60
2023-01-01T09:54:58.950Z,8.90
2023-01-01T10:00:02.226Z,10.10
2023-01-01T10:05:25.191Z,11.40
2023-01-01T10:15:44.594Z,11.90
2023-01-01T10:21:14.382Z,9.70
2023-01-01T10:26:23.470Z,12.30
2023-01-01T10:31:49.975Z,9.00
2023-01-01T10:36:59.063Z,7.80
2023-01-01T10:42:03.594Z,8.00
2023-01-01T10:47:27.178Z,11.90
2023-01-01T10:52:39.932Z,10.20
2023-01-01T10:57:44.101Z,14.90
2023-01-01T11:02:47.417Z,14.10
2023-01-01T11:08:02.931Z,11.40
2023-01-01T11:13:20.564Z,10.70
2023-01-01T11:18:29.237Z,12.00
2023-01-01T11:23:36.042Z,8.70
2023-01-01T11:28:40.365Z,10.80
2023-01-01T11:33:53.186Z,9.50
2023-01-01T11:39:26.665Z,11.40
2023-01-01T11:44:39.108Z,9.30
2023-01-01T11:49:43.367Z,12.20
2023-01-01T11:54:46.926Z,7.90
2023-01-01T11:59:56.278Z,11.90
2023-01-01T12:05:17.301Z,13.40
2023-01-01T12:10:27.795Z,7.50
2023-01-01T12:15:46.694Z,11.30
2023-01-01T12:20:57.655Z,10.10
2023-01-01T12:26:24.128Z,14.00
2023-01-01T12:31:53.393Z,7.30
2023-01-01T12:37:18.344Z,11.30
2023-01-01T12:42:44.749Z,11.10
2023-01-01T12:47:59.868Z,10.20
2023-01-01T12:53:30.977Z,9.30
2023-01-01T12:58:40.777Z,11.20
2023-01-01T13:03:54.533Z,10.40
2023-01-01T13:09:16.391Z,9.70
2023-01-01T13:14:19.643Z,7.70
2023-01-01T13:19:31.938Z,8.70
2023-01-01T13:24:35.262Z,8.50
2023-01-01T13:29:44.679Z,10.20
2023-01-01T13:35:01.940Z,9.60
2023-01-01T13:40:30.039Z,9.70
2023-01-01T13:57:43.594Z,8.20
2023-01-01T14:03:03.075Z,11.60
2023-01-01T14:08:12.995Z,8.60
2023-01-01T14:13:18.084Z,8.50
2023-01-01T14:18:36.228Z,8.30
2023-01-01T14:23:43.218Z,10.20
2023-01-01T14:28:47.106Z,11.10
2023-01-01T14:33:50.479Z,8.60
2023-01-01T14:38:58.145Z,9.30
2023-01-01T14:44:14.725Z,9.40
2023-01-01T14:49:22.475Z,12.50
2023-01-01T14:54:34.343Z,9.00
2023-01-01T14:59:47.016Z,8.70
2023-01-01T15:14:58.390Z,12.70
2023-01-01T15:20:22.113Z,7.80
2023-01-01T15:25:25.502Z,8.30
2023-01-01T15:30:33.835Z,9.30
2023-01-01T15:35:38.347Z,8.90
2023-01-01T15:40:51.085Z,10.00
2023-01-01T15:46:00.335Z,7.90
2023-01-01T15:51:12.854Z,6.80
2023-01-01T15:56:16.578Z,11.50
2023-01-01T16:01:26.539Z,8.00
2023-01-01T16:06:30.396Z,8.20
2023-01-01T16:11:33.647Z,11.40
2023-01-01T16:16:39.895Z,9.40
2023-01-01T16:21:43.130Z,11.70
2023-01-01T16:26:47.659Z,10.70
2023-01-01T16:31:51.878Z,11.60
2023-01-01T16:36:54.990Z,9.60
2023-01-01T16:41:58.676Z,10.10
2023-01-01T16:47:01.895Z,8.70
2023-01-01T16:52:05.702Z,9.90
2023-01-01T16:57:09.312Z,12.90
2023-01-01T17:02:12.489Z,12.80
2023-01-01T17:07:15.834Z,12.90
2023-01-01T17:12:18.964Z,11.10
2023-01-01T17:17:22.124Z,13.20
2023-01-01T17:22:29.230Z,11.90
2023-01-01T17:27:36.247Z,11.80
2023-01-01T17:32:39.466Z,10.80
2023-01-01T17:37:43.722Z,12.00
2023-01-01T17:42:46.872Z,11.30
2023-01-01T17:47:50.037Z,13.70
2023-01-01T17:52:53.321Z,11.60
2023-01-01T17:57:56.548Z,11.90
2023-01-01T18:02:59.818Z,14.90
2023-01-01T18:08:03.629Z,13.00
2023-01-01T18:13:06.879Z,13.50
2023-01-01T18:18:10.084Z,12.60
2023-01-01T18:23:13.357Z,18.70
2023-01-01T18:28:16.559Z,12.40
2023-01-01T18:33:19.767Z,14.80
2023-01-01T18:38:23.332Z,12.00
2023-01-01T18:43:26.577Z,14.60
2023-01-01T18:48:29.735Z,13.80
2023-01-01T18:53:32.984Z,15.60
2023-01-01T18:58:36.159Z,14.60
2023-01-01T19:03:41.539Z,15.30
2023-01-01T19:08:45.125Z,15.00
2023-01-01T19:13:49.981Z,16.30
2023-01-01T19:18:53.346Z,15.00
2023-01-01T19:24:02.348Z,16.10
2023-01-01T19:29:21.912Z,15.00
2023-01-01T19:34:25.624Z,13.80
2023-01-01T19:39:29.480Z,16.90
2023-01-01T19:44:34.805Z,18.50
2023-01-01T19:49:38.183Z,18.10
2023-01-01T19:54:41.364Z,20.90
2023-01-01T19:59:44.514Z,17.40
2023-01-01T20:04:47.770Z,18.30
2023-01-01T20:09:54.159Z,19.20
2023-01-01T20:14:57.329Z,19.50
2023-01-01T20:20:00.590Z,15.90
2023-01-01T20:25:04.356Z,18.50
2023-01-01T20:30:08.205Z,20.40
2023-01-01T20:35:11.446Z,18.90
2023-01-01T20:40:14.637Z,17.30
2023-01-01T20:45:17.992Z,19.80
2023-01-01T20:50:21.171Z,19.00
2023-01-01T20:55:24.366Z,22.40
2023-01-01T21:00:27.491Z,21.40
2023-01-01T21:05:31.816Z,23.20
2023-01-01T21:10:34.997Z,19.40
2023-01-01T21:15:39.150Z,19.80
2023-01-01T21:20:46.441Z,20.50
2023-01-01T21:25:52.109Z,23.30
2023-01-01T21:31:00.112Z,19.30
2023-01-01T21:36:16.224Z,16.30
2023-01-01T21:41:26.222Z,17.00
2023-01-01T21:46:34.616Z,15.10
2023-01-01T21:51:42.456Z,17.70
2023-01-01T21:56:52.824Z,19.00
2023-01-01T22:02:30.895Z,15.70
2023-01-01T22:13:01.933Z,18.90
2023-01-01T22:18:07.651Z,16.90
2023-01-01T22:23:19.917Z,16.10
2023-01-01T22:28:30.563Z,16.30
2023-01-01T22:33:38.429Z,18.90
2023-01-01T22:38:41.691Z,18.20
2023-01-01T22:43:46.965Z,18.10
2023-01-01T22:48:57.551Z,16.50
2023-01-01T22:54:01.244Z,20.80
2023-01-01T22:59:04.447Z,17.30
2023-01-01T23:04:07.580Z,18.70
2023-01-01T23:09:12.274Z,18.30
2023-01-01T23:14:38.615Z,17.50
2023-01-01T23:19:42.457Z,19.90
2023-01-01T23:24:46.522Z,19.90
2023-01-01T23:29:52.896Z,18.30
2023-01-01T23:34:56.724Z,17.70
2023-01-01T23:39:59.831Z,18.60
2023-01-01T23:45:03.062Z,20.30
2023-01-01T23:50:07.069Z,18.00
2023-01-01T23:55:10.516Z,19.70
